Time;durP1;ratioP1;P1;durP2;ratioP2;P2;SDS_P1;SDS_P2;PMS_P1;PMS_P2;Temp;Humidity;BMP_temperature;BMP_pressure;BME280_temperature;BME280_humidity;BME280_pressure;Samples;Min_cycle;Max_cycle;Signal;HPM_P1;HPM_P2
2023/10/02 00:00:40;;;;;;;0.35;0.35;;;;;;;19.48;69.40;102067.56;5099212;28;20036;-83
2023/10/02 00:03:09;;;;;;;0.63;0.63;;;;;;;19.50;69.05;102057.59;5105857;28;20032;-82
2023/10/02 00:05:50;;;;;;;0.20;0.20;;;;;;;19.52;69.12;102061.13;5097695;28;20027;-83
2023/10/02 00:08:31;;;;;;;2.90;1.23;;;;;;;19.52;69.04;102067.34;5097902;28;20376;-82
2023/10/02 00:11:35;;;;;;;0.63;0.63;;;;;;;19.52;68.89;102055.75;5107110;28;20043;-82
2023/10/02 00:14:18;;;;;;;0.10;0.10;;;;;;;19.53;68.54;102060.19;5102018;28;20106;-81
2023/10/02 00:16:42;;;;;;;0.43;0.43;;;;;;;19.47;69.27;102055.03;5099456;28;20411;-83
2023/10/02 00:19:18;;;;;;;0.45;0.45;;;;;;;19.49;68.61;102056.75;5102171;28;20034;-81
2023/10/02 00:21:45;;;;;;;0.15;0.15;;;;;;;19.48;68.56;102054.13;5099545;28;20055;-82
2023/10/02 00:24:13;;;;;;;0.43;0.43;;;;;;;19.46;68.36;102062.22;5110070;28;20542;-82
2023/10/02 00:26:39;;;;;;;0.10;0.10;;;;;;;19.49;68.53;102055.84;5098871;28;20038;-81
2023/10/02 00:29:09;;;;;;;0.20;0.20;;;;;;;19.53;67.93;102054.81;5105546;28;20039;-81
2023/10/02 00:31:38;;;;;;;6.03;1.10;;;;;;;19.50;68.11;102055.81;5097721;28;20096;-82
2023/10/02 00:34:04;;;;;;;0.20;0.20;;;;;;;19.50;67.84;102063.88;5104822;28;20590;-81
2023/10/02 00:36:30;;;;;;;0.55;0.55;;;;;;;19.49;67.76;102063.91;5098807;28;20395;-83
2023/10/02 00:39:24;;;;;;;0.10;0.10;;;;;;;19.48;67.89;102059.50;5095740;28;20507;-81
2023/10/02 00:42:10;;;;;;;0.10;0.10;;;;;;;19.46;67.83;102061.34;5103755;28;20457;-81
2023/10/02 00:45:03;;;;;;;1.55;1.48;;;;;;;19.43;67.72;102062.34;5099079;28;20035;-81
2023/10/02 00:47:41;;;;;;;0.77;0.77;;;;;;;19.30;68.16;102053.88;5098046;28;20036;-81
2023/10/02 00:55:32;;;;;;;0.00;0.00;;;;;;;19.10;68.06;102059.09;5053235;28;20391;-81
2023/10/02 00:58:01;;;;;;;0.10;0.10;;;;;;;19.04;68.13;102058.41;5054953;28;20036;-81
2023/10/02 01:00:36;;;;;;;0.10;0.10;;;;;;;19.00;68.20;102059.41;5050041;28;20030;-81
2023/10/02 01:05:42;;;;;;;0.80;0.80;;;;;;;18.90;68.14;102053.53;5156895;27;20107;-81
2023/10/02 01:08:46;;;;;;;1.00;0.60;;;;;;;18.87;68.66;102060.78;5152769;27;20031;-81
2023/10/02 01:11:02;;;;;;;0.10;0.10;;;;;;;18.79;68.48;102049.44;5135425;27;20042;-82
2023/10/02 01:13:32;;;;;;;1.00;0.95;;;;;;;18.75;68.46;102044.19;5147848;27;20030;-81
2023/10/02 01:16:00;;;;;;;0.10;0.10;;;;;;;18.82;68.02;102050.19;5141500;27;20031;-82
2023/10/02 01:18:27;;;;;;;0.20;0.20;;;;;;;18.80;68.37;102043.13;5138160;27;20023;-81
2023/10/02 01:20:56;;;;;;;0.10;0.10;;;;;;;18.79;68.24;102038.69;5129204;27;20069;-82
2023/10/02 01:23:25;;;;;;;29.15;1.55;;;;;;;18.78;68.41;102036.94;5133116;27;20091;-81
2023/10/02 01:26:08;;;;;;;1.48;0.50;;;;;;;18.75;68.44;102038.81;5134879;27;20115;-81
2023/10/02 01:28:49;;;;;;;0.93;0.90;;;;;;;18.73;68.56;102045.16;5140978;27;20083;-82
2023/10/02 01:31:31;;;;;;;0.17;0.17;;;;;;;18.70;68.52;102045.25;5149437;27;20018;-82
2023/10/02 01:33:59;;;;;;;0.10;0.10;;;;;;;18.67;68.51;102040.88;5136072;27;20480;-82
2023/10/02 01:36:30;;;;;;;0.10;0.10;;;;;;;18.63;69.06;102044.59;5133688;27;20032;-82
2023/10/02 01:38:59;;;;;;;2.60;0.33;;;;;;;18.61;68.83;102035.72;5136871;27;20030;-81
2023/10/02 01:41:26;;;;;;;1.27;1.17;;;;;;;18.58;68.93;102035.84;5134302;27;20307;-82
2023/10/02 01:43:55;;;;;;;9.10;1.02;;;;;;;18.56;68.89;102038.56;5139634;27;20074;-81
2023/10/02 01:46:22;;;;;;;0.20;0.20;;;;;;;18.53;69.23;102032.41;5139138;27;20527;-81
2023/10/02 01:48:50;;;;;;;0.47;0.47;;;;;;;18.51;69.22;102034.28;5129839;27;20027;-81
2023/10/02 01:51:31;;;;;;;0.25;0.25;;;;;;;18.53;69.31;102032.41;5135525;27;20027;-81
2023/10/02 01:54:02;;;;;;;0.30;0.30;;;;;;;18.50;68.94;102037.91;5135209;27;20026;-82
2023/10/02 01:56:31;;;;;;;0.00;0.00;;;;;;;18.46;69.13;102042.50;5137081;27;20051;-81
2023/10/02 01:59:09;;;;;;;0.40;0.40;;;;;;;18.43;69.15;102043.47;5132417;27;20047;-81
2023/10/02 02:01:46;;;;;;;0.20;0.20;;;;;;;18.41;69.29;102044.47;5136314;27;20027;-81
2023/10/02 02:04:14;;;;;;;9.02;1.30;;;;;;;18.38;69.56;102039.19;5139490;27;20031;-81
2023/10/02 02:06:51;;;;;;;1.23;0.47;;;;;;;18.36;69.53;102041.94;5133317;27;20502;-82
2023/10/02 02:09:23;;;;;;;0.00;0.00;;;;;;;18.35;69.38;102031.25;5128664;27;20084;-82
2023/10/02 02:14:28;;;;;;;0.10;0.10;;;;;;;18.32;69.47;102037.59;5073146;28;20383;-79
2023/10/02 02:16:54;;;;;;;0.10;0.10;;;;;;;18.30;69.21;102031.41;5050533;28;20029;-79
2023/10/02 02:19:23;;;;;;;0.35;0.35;;;;;;;18.29;69.72;102029.63;5051742;28;20033;-81
2023/10/02 02:21:49;;;;;;;0.10;0.10;;;;;;;18.28;69.79;102027.91;5044159;28;20021;-81
2023/10/02 02:24:15;;;;;;;0.20;0.20;;;;;;;18.27;69.79;102023.47;5050430;28;20027;-82
2023/10/02 02:26:41;;;;;;;0.10;0.10;;;;;;;18.25;69.98;102028.84;5048538;28;20089;-80
2023/10/02 02:29:39;;;;;;;0.30;0.30;;;;;;;18.24;69.74;102023.56;5045980;28;20082;-81
2023/10/02 02:31:54;;;;;;;0.10;0.10;;;;;;;18.23;69.44;102019.09;5049244;28;20041;-81
2023/10/02 02:34:23;;;;;;;0.85;0.77;;;;;;;18.20;70.22;102019.22;5051370;28;20029;-81
2023/10/02 02:36:50;;;;;;;0.10;0.10;;;;;;;18.17;70.23;102016.63;5049100;28;20390;-81
2023/10/02 02:39:21;;;;;;;0.10;0.10;;;;;;;18.16;70.40;102015.78;5050936;28;20493;-79
2023/10/02 02:44:41;;;;;;;0.60;0.60;;;;;;;18.14;70.17;102027.47;5113652;27;20366;-82
2023/10/02 02:47:08;;;;;;;0.28;0.28;;;;;;;18.14;69.94;102027.47;5102312;28;20032;-81
2023/10/02 02:49:52;;;;;;;0.30;0.30;;;;;;;18.12;69.84;102024.84;5106685;28;20571;-79
2023/10/02 02:52:20;;;;;;;0.20;0.20;;;;;;;18.12;70.25;102027.53;5111433;28;20058;-79
2023/10/02 02:54:48;;;;;;;0.17;0.17;;;;;;;18.11;69.89;102021.28;5111277;28;20050;-82
2023/10/02 02:57:18;;;;;;;5.05;1.45;;;;;;;18.09;69.83;102020.47;5103141;28;20526;-81
2023/10/02 02:59:45;;;;;;;1.75;1.48;;;;;;;18.09;69.78;102023.16;5100827;28;20452;-81
2023/10/02 03:02:21;;;;;;;0.10;0.10;;;;;;;18.08;70.06;102028.53;5095765;28;20111;-80
2023/10/02 03:04:50;;;;;;;0.20;0.20;;;;;;;18.07;70.28;102021.44;5100077;28;20032;-82
2023/10/02 03:07:36;;;;;;;0.10;0.10;;;;;;;18.05;70.51;102020.63;5105556;28;20037;-82
2023/10/02 03:10:03;;;;;;;0.45;0.45;;;;;;;18.03;70.89;102028.72;5101811;28;20023;-82
2023/10/02 03:12:30;;;;;;;0.40;0.40;;;;;;;17.99;71.34;102016.31;5105242;28;20482;-82
2023/10/02 03:14:56;;;;;;;0.10;0.10;;;;;;;18.01;71.21;102030.56;5100606;28;20032;-82
2023/10/02 03:17:31;;;;;;;0.55;0.55;;;;;;;18.02;71.04;102034.09;5101455;28;20025;-82
2023/10/02 03:20:00;;;;;;;1.08;0.98;;;;;;;18.03;70.86;102027.81;5090483;28;20413;-82
2023/10/02 03:22:27;;;;;;;0.60;0.60;;;;;;;18.02;70.79;102032.31;5104242;28;20020;-82
2023/10/02 03:24:57;;;;;;;0.10;0.10;;;;;;;18.03;70.83;102027.81;5104720;28;20039;-82
2023/10/02 03:27:23;;;;;;;1.10;1.10;;;;;;;18.01;70.76;102022.50;5105940;28;20039;-82
2023/10/02 03:29:49;;;;;;;0.10;0.10;;;;;;;18.00;70.94;102017.22;5098603;28;20042;-82
2023/10/02 03:32:16;;;;;;;0.10;0.10;;;;;;;18.02;70.86;102031.41;5108543;28;20027;-81
2023/10/02 03:34:48;;;;;;;0.82;0.82;;;;;;;17.97;71.13;102023.56;5104181;28;20040;-81
2023/10/02 03:37:15;;;;;;;;;;;;;;;18.09;70.72;102023.16;5106621;28;20028;-82
2023/10/02 03:40:13;;;;;;;0.70;0.70;;;;;;;17.99;71.42;102020.81;5103452;28;19919;-82
2023/10/02 03:42:32;;;;;;;0.40;0.40;;;;;;;17.94;70.99;102018.28;5090645;28;20047;-82
2023/10/02 03:45:01;;;;;;;0.88;0.88;;;;;;;17.94;70.67;102013.81;5098821;28;20166;-82
2023/10/02 03:47:30;;;;;;;0.10;0.10;;;;;;;17.94;71.00;102023.63;5100316;28;20036;-82
2023/10/02 03:50:00;;;;;;;0.52;0.52;;;;;;;17.93;70.98;102009.31;5099240;28;20032;-82
2023/10/02 03:52:28;;;;;;;0.10;0.10;;;;;;;17.92;70.65;102009.38;5101636;28;20632;-82
2023/10/02 03:54:55;;;;;;;1.45;0.80;;;;;;;17.93;70.74;102028.09;5089994;28;20028;-82
2023/10/02 03:57:47;;;;;;;0.10;0.10;;;;;;;17.89;70.71;102020.19;5087424;28;20024;-82
2023/10/02 04:00:18;;;;;;;0.22;0.22;;;;;;;17.90;70.60;102011.22;5079694;28;20036;-82
2023/10/02 04:02:46;;;;;;;0.13;0.13;;;;;;;17.88;70.66;102015.75;5084091;28;20051;-82
2023/10/02 04:05:30;;;;;;;0.10;0.10;;;;;;;17.87;70.78;102019.34;5082119;28;20451;-82
2023/10/02 04:08:12;;;;;;;0.35;0.35;;;;;;;17.86;70.56;102014.94;5086771;28;20118;-82
2023/10/02 04:10:51;;;;;;;0.30;0.30;;;;;;;17.82;70.70;102010.59;5086747;28;20103;-82
2023/10/02 04:13:20;;;;;;;1.65;1.55;;;;;;;17.81;70.96;101995.41;5091129;28;20541;-81
2023/10/02 04:15:47;;;;;;;0.10;0.10;;;;;;;17.79;71.25;101987.44;5085788;28;20028;-82
2023/10/02 04:18:45;;;;;;;1.95;1.27;;;;;;;17.75;71.82;101983.09;5092673;28;20028;-82
2023/10/02 04:21:05;;;;;;;0.10;0.10;;;;;;;17.75;71.46;101973.25;5080507;28;20056;-82
2023/10/02 04:23:38;;;;;;;0.20;0.20;;;;;;;17.63;72.31;101981.69;5088366;28;20024;-82
2023/10/02 04:26:05;;;;;;;0.15;0.15;;;;;;;17.60;72.31;101971.94;5086864;28;20029;-82
2023/10/02 04:28:49;;;;;;;0.47;0.47;;;;;;;17.62;72.19;101977.28;5084986;28;20464;-82
2023/10/02 04:31:21;;;;;;;0.10;0.10;;;;;;;17.62;72.20;101974.59;5086214;28;20032;-82
2023/10/02 04:33:53;;;;;;;0.52;0.52;;;;;;;17.62;72.70;101980.81;5089352;28;20020;-82
2023/10/02 04:36:31;;;;;;;2.50;1.52;;;;;;;17.63;72.45;101981.69;5085668;28;20042;-82
2023/10/02 04:38:57;;;;;;;1.00;0.95;;;;;;;17.66;72.50;101984.28;5084435;28;20024;-81
2023/10/02 04:41:27;;;;;;;0.30;0.30;;;;;;;17.68;72.31;101981.53;5079032;28;20024;-82
2023/10/02 04:43:57;;;;;;;0.55;0.55;;;;;;;17.69;72.33;101975.25;5075795;28;20020;-82
2023/10/02 04:46:28;;;;;;;0.10;0.10;;;;;;;17.70;71.82;101983.25;5083971;28;20032;-83
2023/10/02 04:48:59;;;;;;;0.28;0.28;;;;;;;17.71;72.04;101986.81;5089253;28;20036;-81
2023/10/02 04:51:28;;;;;;;1.17;1.17;;;;;;;17.71;72.54;101985.00;5084201;28;20509;-82
2023/10/02 04:53:57;;;;;;;0.10;0.10;;;;;;;17.71;72.47;101985.00;5086939;28;20035;-81
2023/10/02 04:56:25;;;;;;;0.10;0.10;;;;;;;17.71;72.34;101990.38;5091633;28;20193;-82
2023/10/02 04:58:52;;;;;;;0.30;0.30;;;;;;;17.74;72.21;101992.94;5075191;28;20056;-81
2023/10/02 05:01:24;;;;;;;0.13;0.13;;;;;;;17.74;73.04;102000.13;5080134;28;20036;-83
2023/10/02 05:03:53;;;;;;;0.20;0.20;;;;;;;17.75;72.38;101999.19;5076853;28;20063;-81
2023/10/02 05:06:55;;;;;;;0.30;0.30;;;;;;;17.75;72.24;102005.41;5079033;28;20437;-82
2023/10/02 05:11:55;;;;;;;0.10;0.10;;;;;;;17.74;72.26;102006.34;5076815;28;20366;-82
2023/10/02 05:14:27;;;;;;;0.20;0.20;;;;;;;17.73;72.70;101999.25;5060748;28;20029;-82
2023/10/02 05:17:04;;;;;;;0.10;0.10;;;;;;;17.73;72.40;101999.25;5052824;28;20044;-82
2023/10/02 05:20:04;;;;;;;1.55;0.45;;;;;;;17.72;72.08;101992.13;5062272;28;20037;-82
2023/10/02 05:22:16;;;;;;;0.30;0.30;;;;;;;17.71;72.34;101987.69;5056548;28;20037;-82
2023/10/02 05:24:42;;;;;;;0.10;0.10;;;;;;;17.72;72.08;101994.81;5059972;28;20455;-82
2023/10/02 05:27:27;;;;;;;0.28;0.28;;;;;;;17.73;71.96;101998.34;5058883;28;20438;-82
2023/10/02 05:29:54;;;;;;;0.30;0.30;;;;;;;17.74;72.50;102000.13;5058622;28;20051;-82
2023/10/02 05:32:23;;;;;;;0.22;0.22;;;;;;;17.76;72.58;101999.13;5062262;28;20029;-82
2023/10/02 05:35:23;;;;;;;0.10;0.10;;;;;;;17.76;72.62;102000.94;5058760;28;20380;-81
2023/10/02 05:37:43;;;;;;;0.20;0.20;;;;;;;17.77;72.48;101995.53;5058879;28;20066;-82
2023/10/02 05:45:39;;;;;;;0.10;0.10;;;;;;;17.81;72.56;102006.16;5093730;27;1174285;-84
2023/10/02 05:48:08;;;;;;;;;;;;;;;17.97;72.22;102010.16;5107051;28;20051;-82
2023/10/02 05:50:37;;;;;;;0.25;0.25;;;;;;;17.88;72.25;102005.03;5113024;28;19979;-81
2023/10/02 05:53:04;;;;;;;0.40;0.40;;;;;;;17.90;72.19;102008.53;5114894;28;20023;-85
2023/10/02 05:55:56;;;;;;;0.10;0.10;;;;;;;17.90;72.21;102013.91;5110701;28;20024;-85
2023/10/02 05:58:23;;;;;;;0.08;0.08;;;;;;;17.92;72.17;102014.75;5103744;28;20539;-84
2023/10/02 06:00:51;;;;;;;0.10;0.10;;;;;;;17.95;72.10;102022.72;5115118;28;20540;-84
2023/10/02 06:03:17;;;;;;;0.10;0.10;;;;;;;17.97;72.28;102023.56;5110227;28;20039;-85
2023/10/02 06:06:06;;;;;;;0.50;0.50;;;;;;;17.97;72.42;102028.91;5113980;28;20378;-83
2023/10/02 06:08:33;;;;;;;0.10;0.10;;;;;;;18.01;72.62;102030.56;5107874;28;20066;-84
2023/10/02 06:11:25;;;;;;;0.20;0.20;;;;;;;18.02;72.73;102026.97;5102883;28;20031;-84
2023/10/02 06:13:48;;;;;;;7.57;0.40;;;;;;;18.06;72.69;102033.97;5097064;28;20072;-84
2023/10/02 06:16:14;;;;;;;9.85;3.10;;;;;;;18.03;72.92;102028.72;5101291;28;20532;-83
2023/10/02 06:18:40;;;;;;;0.10;0.10;;;;;;;18.08;72.64;102032.13;5092668;28;20028;-83
2023/10/02 06:21:07;;;;;;;0.40;0.40;;;;;;;18.11;72.58;102025.78;5105549;28;20118;-84
2023/10/02 06:23:37;;;;;;;0.10;0.10;;;;;;;18.15;72.31;102029.25;5100412;28;20036;-84
2023/10/02 06:26:09;;;;;;;0.25;0.25;;;;;;;18.14;72.79;102030.16;5106111;28;20653;-83
2023/10/02 06:28:36;;;;;;;0.10;0.10;;;;;;;18.16;72.72;102036.38;5112412;28;20099;-83
2023/10/02 06:31:06;;;;;;;0.20;0.20;;;;;;;18.15;72.84;102030.09;5110195;28;20437;-83
2023/10/02 06:33:36;;;;;;;1.00;1.00;;;;;;;18.19;72.69;102036.25;5105304;28;20083;-83
2023/10/02 06:36:07;;;;;;;0.10;0.10;;;;;;;18.22;72.89;102030.78;5114066;28;20054;-83
2023/10/02 06:38:33;;;;;;;0.10;0.10;;;;;;;18.20;72.81;102029.97;5110496;28;20027;-84
2023/10/02 06:41:07;;;;;;;0.20;0.20;;;;;;;18.23;72.73;102035.22;5106419;28;20633;-82
2023/10/02 06:43:33;;;;;;;2.97;2.78;;;;;;;18.26;72.51;102037.81;5112172;28;20040;-83
2023/10/02 06:46:13;;;;;;;0.43;0.43;;;;;;;18.31;72.55;102035.84;5107855;28;20288;-84
2023/10/02 06:48:43;;;;;;;0.10;0.10;;;;;;;18.29;72.74;102040.38;5094548;28;20079;-82
2023/10/02 06:51:11;;;;;;;0.95;0.95;;;;;;;18.31;72.89;102038.53;5109063;28;20081;-82
2023/10/02 06:53:40;;;;;;;0.47;0.47;;;;;;;18.36;72.63;102043.75;5104923;28;20019;-85
2023/10/02 06:56:10;;;;;;;0.20;0.20;;;;;;;18.38;72.46;102044.53;5092360;28;20028;-82
2023/10/02 06:58:54;;;;;;;1.40;1.17;;;;;;;18.42;72.50;102047.09;5096145;28;20027;-83
2023/10/02 07:01:26;;;;;;;0.38;0.38;;;;;;;18.48;72.36;102040.66;5097635;28;20042;-83
2023/10/02 07:03:52;;;;;;;0.30;0.30;;;;;;;18.52;72.61;102036.06;5096923;28;20027;-84
2023/10/02 07:06:19;;;;;;;0.10;0.10;;;;;;;18.57;72.56;102031.41;5097361;28;20588;-84
2023/10/02 07:08:48;;;;;;;0.25;0.25;;;;;;;18.62;72.29;102037.47;5088924;28;20047;-82
2023/10/02 07:11:18;;;;;;;0.52;0.52;;;;;;;18.64;72.68;102035.63;5089471;28;20115;-84
2023/10/02 07:13:55;;;;;;;0.22;0.22;;;;;;;18.71;72.40;102039.81;5094241;28;20028;-82
2023/10/02 07:16:22;;;;;;;1.02;1.02;;;;;;;18.79;72.31;102044.06;5099753;28;20020;-83
2023/10/02 07:18:49;;;;;;;0.30;0.30;;;;;;;18.86;72.27;102048.28;5101090;28;20035;-84
2023/10/02 07:21:19;;;;;;;0.40;0.40;;;;;;;18.94;72.59;102046.25;5100269;28;20020;-84
2023/10/02 07:23:45;;;;;;;0.20;0.20;;;;;;;19.06;72.11;102058.34;5092942;28;20049;-84
2023/10/02 07:26:20;;;;;;;4.38;0.63;;;;;;;19.19;72.37;102045.31;5098263;28;20042;-84
2023/10/02 07:28:50;;;;;;;0.17;0.17;;;;;;;19.26;72.24;102049.53;5090835;28;20106;-84
2023/10/02 07:31:18;;;;;;;2.35;2.15;;;;;;;19.34;71.75;102041.19;5109251;28;20008;-83
2023/10/02 07:33:45;;;;;;;1.40;1.30;;;;;;;19.42;71.70;102048.97;5105438;28;20042;-84
2023/10/02 07:36:14;;;;;;;0.90;0.88;;;;;;;19.46;71.72;102055.97;5094647;28;20031;-83
2023/10/02 07:38:43;;;;;;;0.10;0.10;;;;;;;19.50;71.88;102046.84;5095654;28;20031;-83
2023/10/02 07:41:23;;;;;;;0.98;0.98;;;;;;;19.53;71.83;102052.13;5097635;28;20028;-83
2023/10/02 07:43:52;;;;;;;0.25;0.25;;;;;;;19.58;71.46;102055.50;5087319;28;20013;-83
2023/10/02 07:46:21;;;;;;;0.10;0.10;;;;;;;19.62;71.48;102073.25;5091358;28;20023;-83
2023/10/02 07:49:04;;;;;;;0.32;0.32;;;;;;;19.65;71.37;102077.66;5085249;28;20100;-83
2023/10/02 07:51:39;;;;;;;0.30;0.25;;;;;;;19.70;71.22;102076.53;5099392;28;20028;-82
2023/10/02 07:54:07;;;;;;;3.58;1.48;;;;;;;19.71;71.38;102078.31;5098752;28;20028;-82
2023/10/02 07:56:35;;;;;;;2.10;1.55;;;;;;;19.76;71.21;102075.41;5096810;28;20040;-83
2023/10/02 07:59:01;;;;;;;0.55;0.55;;;;;;;19.86;70.99;102068.78;5099169;28;20028;-83
2023/10/02 08:01:28;;;;;;;0.15;0.15;;;;;;;19.95;70.93;102070.22;5098541;28;20043;-84
2023/10/02 08:03:56;;;;;;;0.20;0.20;;;;;;;20.08;71.00;102069.75;5098899;28;20599;-83
2023/10/02 08:09:47;;;;;;;0.35;0.35;;;;;;;20.28;70.65;102067.09;5091963;27;20145;-82
2023/10/02 08:11:57;;;;;;;0.10;0.10;;;;;;;20.38;70.48;102069.41;5091640;28;20048;-81
2023/10/02 08:14:57;;;;;;;0.57;0.57;;;;;;;20.46;70.24;102080.72;5091798;28;20024;-82
2023/10/02 08:17:21;;;;;;;0.30;0.30;;;;;;;20.56;70.30;102071.34;5092187;28;20039;-83
2023/10/02 08:19:56;;;;;;;0.75;0.75;;;;;;;20.63;70.03;102083.56;5094477;28;20036;-82
2023/10/02 08:22:24;;;;;;;0.45;0.45;;;;;;;20.68;70.05;102073.47;5091735;28;20034;-83
2023/10/02 08:24:52;;;;;;;0.35;0.35;;;;;;;20.75;69.74;102070.53;5092267;28;20028;-83
2023/10/02 08:27:18;;;;;;;0.15;0.15;;;;;;;20.79;69.42;102067.66;5091198;28;20483;-83
2023/10/02 08:29:44;;;;;;;1.60;1.38;;;;;;;20.79;69.16;102069.50;5092387;28;20024;-83
2023/10/02 08:32:11;;;;;;;0.38;0.38;;;;;;;20.81;68.83;102063.09;5091590;28;20055;-83
2023/10/02 08:34:37;;;;;;;0.40;0.40;;;;;;;20.89;68.76;102061.88;5091738;28;20020;-83
2023/10/02 08:37:12;;;;;;;0.52;0.52;;;;;;;20.99;68.97;102069.47;5089301;28;20044;-83
2023/10/02 08:39:40;;;;;;;0.75;0.75;;;;;;;21.03;68.87;102069.34;5089996;28;20035;-83
2023/10/02 08:42:10;;;;;;;0.77;0.73;;;;;;;21.08;68.37;102062.78;5091319;28;20039;-83
2023/10/02 08:44:40;;;;;;;0.30;0.30;;;;;;;21.17;68.46;102056.09;5091217;28;20020;-83
2023/10/02 08:47:07;;;;;;;0.85;0.85;;;;;;;21.23;68.43;102050.44;5091150;28;20024;-83
2023/10/02 08:49:35;;;;;;;0.10;0.10;;;;;;;21.30;68.41;102045.66;5091442;28;20063;-83
2023/10/02 08:52:06;;;;;;;0.45;0.45;;;;;;;21.37;68.40;102040.84;5096782;28;20032;-80
2023/10/02 08:54:32;;;;;;;0.65;0.65;;;;;;;21.43;68.38;102041.47;5107979;28;20043;-80
2023/10/02 08:57:06;;;;;;;0.98;0.75;;;;;;;21.53;68.34;102044.56;5091057;28;20094;-83
2023/10/02 08:59:38;;;;;;;0.10;0.10;;;;;;;21.61;68.33;102050.50;5092020;28;20589;-81
2023/10/02 09:02:13;;;;;;;0.52;0.52;;;;;;;21.72;67.96;102057.22;5088852;28;20556;-82
2023/10/02 09:04:42;;;;;;;0.10;0.10;;;;;;;21.83;67.55;102052.16;5091682;28;20047;-83
2023/10/02 09:07:22;;;;;;;0.63;0.63;;;;;;;22.09;67.61;102060.81;5089811;28;20444;-83
2023/10/02 09:09:55;;;;;;;0.40;0.40;;;;;;;22.15;67.18;102060.53;5093044;28;20020;-83
2023/10/02 09:12:22;;;;;;;0.65;0.55;;;;;;;22.28;66.98;102058.97;5090913;28;20024;-82
2023/10/02 09:14:51;;;;;;;0.13;0.13;;;;;;;22.35;66.73;102055.97;5091784;28;20039;-83
2023/10/02 09:17:20;;;;;;;0.95;0.95;;;;;;;22.45;66.26;102046.47;5086929;28;20054;-80
2023/10/02 09:22:25;;;;;;;0.68;0.68;;;;;;;22.61;66.13;102046.53;5105019;27;20378;-80
2023/10/02 09:25:26;;;;;;;0.70;0.70;;;;;;;22.80;65.89;102034.78;5125854;28;20049;-83
2023/10/02 09:27:56;;;;;;;0.95;0.95;;;;;;;22.86;65.47;102043.44;5112146;28;20035;-83
2023/10/02 09:30:41;;;;;;;0.30;0.30;;;;;;;22.98;65.15;102043.72;5106073;28;20085;-83
2023/10/02 09:35:42;;;;;;;0.10;0.10;;;;;;;23.12;64.72;102041.16;5104835;27;1172431;-84
2023/10/02 09:38:10;;;;;;;0.40;0.40;;;;;;;23.17;64.67;102028.28;5125098;28;20102;-84
2023/10/02 09:41:15;;;;;;;8.50;1.58;;;;;;;23.22;64.56;102026.22;5116964;28;20024;-84
2023/10/02 09:43:32;;;;;;;0.45;0.45;;;;;;;23.24;64.53;102018.91;5116580;28;20671;-84
2023/10/02 09:46:02;;;;;;;0.10;0.10;;;;;;;23.22;63.74;102026.22;5115555;28;20019;-84
2023/10/02 09:51:09;;;;;;;0.63;0.63;;;;;;;23.19;63.75;102014.69;5114036;27;1169906;-82
2023/10/02 09:53:41;;;;;;;0.20;0.20;;;;;;;23.19;63.91;102014.69;5131680;27;20242;-82
2023/10/02 09:56:18;;;;;;;6.32;1.77;;;;;;;23.16;63.58;102002.22;5119344;28;20129;-82
2023/10/02 09:58:55;;;;;;;0.40;0.40;;;;;;;23.18;64.22;102004.81;5116588;27;20055;-82
2023/10/02 10:01:34;;;;;;;0.43;0.43;;;;;;;23.14;64.45;102004.13;5111665;28;20051;-83
2023/10/02 10:04:01;;;;;;;0.20;0.20;;;;;;;23.10;64.28;102005.22;5110699;28;20117;-82
2023/10/02 10:06:28;;;;;;;0.15;0.15;;;;;;;23.01;64.06;102006.59;5111095;28;20030;-82
2023/10/02 10:11:34;;;;;;;0.60;0.60;;;;;;;23.16;64.54;102007.63;5118089;27;20356;-82
2023/10/02 10:14:36;;;;;;;3.40;1.63;;;;;;;23.25;63.79;102003.53;5112025;28;20024;-82
2023/10/02 10:22:39;;;;;;;0.85;0.85;;;;;;;23.38;63.56;102009.16;5105287;27;20324;-81
2023/10/02 10:36:02;;;;;;;1.88;1.05;;;;;;;23.63;63.53;102005.03;5110500;27;20920;-83
2023/10/02 10:41:09;;;;;;;0.22;0.22;;;;;;;23.83;62.55;101996.66;5079004;27;1856679;-82
2023/10/02 10:43:44;;;;;;;0.30;0.30;;;;;;;24.01;62.40;101999.28;5130128;28;20495;-82
2023/10/02 10:49:24;;;;;;;1.05;0.98;;;;;;;24.21;61.30;101998.09;5112988;27;20853;-82
2023/10/02 10:51:52;;;;;;;0.10;0.10;;;;;;;24.27;60.20;101991.47;5104609;28;20561;-82
2023/10/02 10:54:19;;;;;;;0.15;0.15;;;;;;;24.23;59.64;101997.06;5103129;28;20461;-82
2023/10/02 10:56:56;;;;;;;0.30;0.30;;;;;;;24.39;60.47;101997.00;5096941;28;20032;-82
2023/10/02 10:59:32;;;;;;;0.35;0.35;;;;;;;24.43;60.12;101992.28;5103949;28;20021;-82
2023/10/02 11:02:15;;;;;;;0.32;0.32;;;;;;;24.48;59.79;102001.00;5104882;28;20028;-83
2023/10/02 11:04:49;;;;;;;0.80;0.80;;;;;;;24.61;59.75;101994.81;5086012;28;20032;-83
2023/10/02 11:07:21;;;;;;;3.30;1.30;;;;;;;24.54;59.57;102000.63;5085278;28;20047;-83
2023/10/02 11:10:14;;;;;;;2.45;2.28;;;;;;;24.45;59.29;102000.31;5082805;28;20027;-83
2023/10/02 11:12:38;;;;;;;0.52;0.52;;;;;;;24.31;59.24;101999.31;5095581;28;20052;-82
2023/10/02 11:15:15;;;;;;;1.15;1.15;;;;;;;24.23;59.79;101990.78;5095715;28;20569;-83
2023/10/02 11:17:42;;;;;;;3.30;0.70;;;;;;;24.25;60.14;101988.84;5104453;28;20391;-84
2023/10/02 11:20:09;;;;;;;0.57;0.57;;;;;;;24.22;60.50;101991.72;5097932;28;20027;-83
2023/10/02 11:22:51;;;;;;;0.38;0.38;;;;;;;24.38;60.39;101983.56;5090370;28;20496;-83
2023/10/02 11:25:18;;;;;;;0.32;0.32;;;;;;;24.37;60.12;101976.41;5098342;28;20108;-83
2023/10/02 11:27:56;;;;;;;1.05;1.05;;;;;;;24.33;59.92;101977.56;5096477;28;20507;-83
2023/10/02 11:30:42;;;;;;;1.88;0.98;;;;;;;24.41;60.28;101975.22;5085317;28;20119;-82
2023/10/02 11:33:08;;;;;;;0.20;0.20;;;;;;;24.47;60.07;101974.00;5098242;28;20094;-83
2023/10/02 11:35:38;;;;;;;1.17;0.93;;;;;;;24.44;59.74;101972.34;5091635;28;20025;-82
2023/10/02 11:38:07;;;;;;;0.10;0.10;;;;;;;24.46;60.00;101974.97;5080711;28;20032;-82
2023/10/02 11:40:34;;;;;;;0.47;0.47;;;;;;;24.55;59.48;101972.56;5089789;28;20112;-82
2023/10/02 11:43:00;;;;;;;0.00;0.00;;;;;;;24.75;59.09;101970.50;5097138;28;20029;-83
2023/10/02 11:45:28;;;;;;;0.38;0.38;;;;;;;24.85;58.89;101960.81;5103025;28;20086;-82
2023/10/02 11:47:54;;;;;;;0.52;0.52;;;;;;;24.89;58.56;101950.66;5102597;28;20020;-83
2023/10/02 11:50:20;;;;;;;2.88;0.30;;;;;;;24.93;58.21;101956.75;5109754;28;20036;-82
2023/10/02 11:52:47;;;;;;;2.78;0.90;;;;;;;25.09;58.51;101953.94;5110336;28;20048;-81
2023/10/02 11:55:17;;;;;;;0.20;0.20;;;;;;;25.15;58.07;101945.41;5109131;28;20103;-83
2023/10/02 11:57:44;;;;;;;0.35;0.35;;;;;;;25.28;58.12;101942.75;5104272;28;20062;-83
2023/10/02 12:00:12;;;;;;;0.38;0.38;;;;;;;25.34;57.72;101937.81;5093469;28;20027;-83
2023/10/02 12:02:39;;;;;;;0.10;0.10;;;;;;;25.45;57.96;101937.13;5092206;28;20017;-83
2023/10/02 12:05:07;;;;;;;4.72;1.85;;;;;;;25.42;57.30;101942.78;5084759;28;20045;-83
2023/10/02 12:07:33;;;;;;;0.95;0.40;;;;;;;25.37;57.77;101938.63;5092030;28;20020;-84
2023/10/02 12:10:00;;;;;;;0.50;0.50;;;;;;;25.41;57.79;101940.16;5089102;28;20031;-83
2023/10/02 12:12:27;;;;;;;1.38;1.25;;;;;;;25.35;57.30;101938.69;5092893;28;20032;-84
2023/10/02 12:14:55;;;;;;;0.20;0.20;;;;;;;25.33;57.72;101941.50;5092022;28;20021;-83
2023/10/02 12:17:21;;;;;;;0.75;0.75;;;;;;;25.44;57.91;101929.97;5090790;28;20024;-83
2023/10/02 12:19:48;;;;;;;1.58;1.50;;;;;;;25.54;57.53;101932.09;5092114;28;20104;-83
2023/10/02 12:22:14;;;;;;;0.20;0.20;;;;;;;25.56;56.98;101932.84;5089553;28;20114;-83
2023/10/02 12:24:41;;;;;;;0.05;0.05;;;;;;;25.45;56.60;101925.44;5092508;28;20037;-84
2023/10/02 12:27:10;;;;;;;0.25;0.25;;;;;;;25.51;57.37;101920.44;5090936;28;20107;-83
2023/10/02 12:29:37;;;;;;;0.17;0.17;;;;;;;25.59;57.54;101916.38;5090791;28;20161;-83
2023/10/02 12:32:09;;;;;;;3.63;0.80;;;;;;;25.66;57.54;101907.69;5091145;28;20039;-83
2023/10/02 12:34:35;;;;;;;0.30;0.30;;;;;;;25.78;57.49;101905.13;5094288;28;20021;-84
2023/10/02 12:37:02;;;;;;;0.73;0.73;;;;;;;25.84;56.37;101894.75;5093287;28;20593;-83
2023/10/02 12:39:28;;;;;;;0.47;0.47;;;;;;;25.96;56.14;101881.28;5086723;28;20013;-84
2023/10/02 12:42:00;;;;;;;0.47;0.47;;;;;;;26.10;56.67;101883.94;5083743;28;20043;-82